Time;durP1;ratioP1;P1;durP2;ratioP2;P2;SDS_P1;SDS_P2;PMS_P1;PMS_P2;Temp;Humidity;BMP_temperature;BMP_pressure;BME280_temperature;BME280_humidity;BME280_pressure;Samples;Min_cycle;Max_cycle;Signal;HPM_P1;HPM_P2
2021/04/07 00:00:37;;;;;;;8.65;6.08;;;;;;;6.01;71.32;97782.91;1808289;79;21162;-42
2021/04/07 00:03:06;;;;;;;8.18;6.58;;;;;;;5.99;71.60;97781.17;1808298;79;21178;-43
2021/04/07 00:05:39;;;;;;;8.03;6.25;;;;;;;5.93;71.43;97779.37;1808010;79;21134;-43
2021/04/07 00:08:08;;;;;;;9.50;5.80;;;;;;;5.86;71.51;97783.84;1807247;79;21091;-43
2021/04/07 00:10:43;;;;;;;6.35;5.33;;;;;;;5.78;71.75;97789.72;1776055;80;21244;-42
2021/04/07 00:13:12;;;;;;;7.83;5.70;;;;;;;5.74;71.67;97777.38;1776156;80;21027;-42
2021/04/07 00:15:40;;;;;;;9.63;5.47;;;;;;;5.73;71.87;97782.54;1776192;80;21162;-42
2021/04/07 00:18:09;;;;;;;7.78;5.35;;;;;;;5.74;71.82;97784.88;1776013;80;21135;-42
2021/04/07 00:20:37;;;;;;;7.42;5.70;;;;;;;5.72;71.89;97782.33;1776086;80;21170;-42
2021/04/07 00:23:06;;;;;;;7.17;5.12;;;;;;;5.71;72.02;97778.11;1776084;80;21276;-42
2021/04/07 00:25:35;;;;;;;6.42;5.12;;;;;;;5.74;71.87;97778.72;1775895;80;21154;-42
2021/04/07 00:28:10;;;;;;;5.67;5.08;;;;;;;5.75;71.71;97780.27;1776187;80;21142;-42
2021/04/07 00:30:36;;;;;;;5.58;4.67;;;;;;;5.72;71.72;97783.11;1775491;80;22030;-42
2021/04/07 00:33:05;;;;;;;5.83;5.03;;;;;;;5.73;71.72;97781.20;1776156;80;21231;-43
2021/04/07 00:35:33;;;;;;;6.08;5.28;;;;;;;5.66;71.54;97786.68;1776543;80;22223;-42
2021/04/07 00:38:01;;;;;;;6.08;5.47;;;;;;;5.53;71.80;97789.97;1776041;80;21134;-42
2021/04/07 00:40:30;;;;;;;6.00;5.40;;;;;;;5.41;72.26;97786.95;1776026;80;21165;-43
2021/04/07 00:43:00;;;;;;;6.10;5.33;;;;;;;5.36;72.57;97789.94;1776127;80;21070;-42
2021/04/07 00:45:28;;;;;;;7.12;5.78;;;;;;;5.32;72.80;97793.16;1776209;80;21157;-43
2021/04/07 00:47:56;;;;;;;6.33;5.65;;;;;;;5.30;72.91;97795.98;1775982;80;21182;-42
2021/04/07 00:50:28;;;;;;;5.92;5.30;;;;;;;5.24;72.86;97797.64;1776113;80;21578;-42
2021/04/07 00:52:56;;;;;;;6.00;5.17;;;;;;;5.22;72.92;97797.80;1776144;80;21155;-43
2021/04/07 00:55:33;;;;;;;5.90;5.30;;;;;;;5.17;73.09;97801.58;1776087;80;21129;-42
2021/04/07 00:58:01;;;;;;;5.80;5.20;;;;;;;5.12;73.09;97797.08;1773936;80;21561;-43
2021/04/07 01:00:31;;;;;;;5.08;4.58;;;;;;;5.06;73.20;97793.92;1771259;80;21133;-42
2021/04/07 01:03:00;;;;;;;6.87;5.15;;;;;;;5.04;73.05;97793.49;1771177;81;21103;-42
2021/04/07 01:05:29;;;;;;;5.30;4.80;;;;;;;5.03;73.21;97804.61;1771415;80;21570;-42
2021/04/07 01:07:59;;;;;;;;;;;;;;;5.00;73.18;97806.66;1773852;80;21003;-43
2021/04/07 01:10:27;;;;;;;6.33;4.42;;;;;;;4.98;73.25;97810.28;1771076;79;20243;-42
2021/04/07 01:12:55;;;;;;;6.70;5.03;;;;;;;4.92;73.64;97807.13;1771315;81;22123;-42
2021/04/07 01:15:23;;;;;;;6.25;5.28;;;;;;;4.94;73.65;97807.52;1771008;80;21417;-42
2021/04/07 01:17:56;;;;;;;8.63;5.90;;;;;;;4.94;73.54;97804.84;1771322;80;20996;-42
2021/04/07 01:20:25;;;;;;;5.85;5.10;;;;;;;4.92;73.55;97799.64;1771195;80;21154;-42
2021/04/07 01:23:01;;;;;;;6.37;5.10;;;;;;;4.93;73.58;97791.80;1771346;81;21155;-42
2021/04/07 01:25:29;;;;;;;5.10;4.60;;;;;;;4.93;73.58;97801.19;1771271;81;22180;-42
2021/04/07 01:27:58;;;;;;;6.58;5.53;;;;;;;4.96;73.44;97797.78;1771303;81;21146;-42
2021/04/07 01:30:26;;;;;;;5.28;4.78;;;;;;;4.98;73.41;97794.17;1719221;81;21142;-42
2021/04/07 01:32:54;;;;;;;6.17;5.40;;;;;;;4.99;73.17;97792.45;1771228;81;21182;-42
2021/04/07 01:35:23;;;;;;;9.00;5.37;;;;;;;4.98;73.05;97789.58;1771387;81;21139;-42
2021/04/07 01:37:51;;;;;;;5.65;4.72;;;;;;;4.99;72.92;97784.96;1771175;81;21280;-42
2021/04/07 01:40:21;;;;;;;4.50;4.10;;;;;;;4.98;72.66;97780.19;1771307;80;21019;-42
2021/04/07 01:42:49;;;;;;;5.83;5.30;;;;;;;4.97;72.81;97773.26;1771174;81;20999;-42
2021/04/07 01:45:17;;;;;;;5.62;4.92;;;;;;;4.99;72.86;97771.53;1743451;81;21118;-42
2021/04/07 01:47:46;;;;;;;8.13;5.42;;;;;;;5.03;72.80;97760.30;1771484;80;26144;-42
2021/04/07 01:50:14;;;;;;;6.17;5.17;;;;;;;5.06;72.46;97755.53;1771326;80;21131;-42
2021/04/07 01:52:43;;;;;;;7.05;5.33;;;;;;;5.11;72.26;97743.14;1771307;81;21024;-42
2021/04/07 01:55:12;;;;;;;6.20;5.30;;;;;;;5.14;72.06;97739.72;1771491;81;21621;-42
2021/04/07 01:57:40;;;;;;;6.55;5.83;;;;;;;5.12;71.98;97728.02;1772103;80;21233;-42
2021/04/07 02:00:13;;;;;;;7.30;5.87;;;;;;;5.12;71.94;97724.55;1776293;80;21159;-42
2021/04/07 02:02:42;;;;;;;6.95;5.22;;;;;;;5.09;71.73;97711.27;1776301;80;21248;-42
2021/04/07 02:05:12;;;;;;;5.37;4.22;;;;;;;5.13;71.87;97707.30;1776172;80;21052;-42
2021/04/07 02:07:40;;;;;;;4.65;4.25;;;;;;;5.22;71.74;97702.44;1776244;80;21186;-42
2021/04/07 02:10:12;;;;;;;4.65;4.25;;;;;;;5.36;71.59;97702.61;1776335;79;21176;-42
2021/04/07 02:12:39;;;;;;;4.42;4.03;;;;;;;5.39;71.27;97699.19;1776489;80;21126;-42
2021/04/07 02:15:14;;;;;;;3.70;3.35;;;;;;;5.41;71.09;97702.86;1776217;80;23445;-42
2021/04/07 02:17:46;;;;;;;4.67;3.75;;;;;;;5.40;70.87;97704.77;1776238;80;21158;-42
2021/04/07 02:20:15;;;;;;;3.50;3.20;;;;;;;5.38;70.50;97703.57;1776212;80;21189;-42
2021/04/07 02:22:44;;;;;;;2.98;2.67;;;;;;;5.34;70.36;97708.91;1776244;80;21171;-42
2021/04/07 02:25:12;;;;;;;3.08;2.77;;;;;;;5.38;70.08;97721.03;1776616;80;21182;-42
2021/04/07 02:27:40;;;;;;;4.67;2.90;;;;;;;5.38;69.97;97721.81;1776195;80;21356;-42
2021/04/07 02:30:12;;;;;;;3.05;2.80;;;;;;;5.28;69.87;97730.51;1776190;80;21170;-42
2021/04/07 02:32:40;;;;;;;2.55;2.35;;;;;;;5.19;70.25;97740.19;1776246;80;21158;-42
2021/04/07 02:35:10;;;;;;;3.55;2.65;;;;;;;5.14;70.47;97743.75;1776199;80;21146;-42
2021/04/07 02:37:38;;;;;;;2.30;2.10;;;;;;;5.10;70.32;97755.02;1776323;80;21154;-42
2021/04/07 02:40:08;;;;;;;3.52;2.30;;;;;;;5.07;70.47;97763.24;1776293;80;21175;-43
2021/04/07 02:42:35;;;;;;;2.40;2.20;;;;;;;5.02;70.47;97777.55;1776332;80;22114;-42
2021/04/07 02:45:06;;;;;;;2.58;2.37;;;;;;;4.97;70.86;97776.50;1776149;80;21011;-42
2021/04/07 02:47:34;;;;;;;2.72;2.27;;;;;;;4.91;70.74;97779.28;1776165;80;21138;-42
2021/04/07 02:50:04;;;;;;;2.37;2.12;;;;;;;4.84;70.83;97791.27;1776283;80;21127;-42
2021/04/07 02:52:32;;;;;;;1.92;1.70;;;;;;;4.81;71.02;97792.75;1776454;80;21425;-42
2021/04/07 02:55:00;;;;;;;2.20;1.65;;;;;;;4.80;70.88;97794.66;1776089;80;21162;-42
2021/04/07 02:57:28;;;;;;;2.05;1.85;;;;;;;4.75;70.69;97799.55;1776084;80;21001;-42
2021/04/07 02:59:56;;;;;;;2.15;1.60;;;;;;;4.67;70.93;97804.03;1764984;80;21159;-42
2021/04/07 03:02:24;;;;;;;2.12;1.92;;;;;;;4.61;70.94;97815.41;1764973;81;21182;-42
2021/04/07 03:04:53;;;;;;;1.55;1.45;;;;;;;4.54;70.83;97817.42;1765031;81;21360;-42
2021/04/07 03:07:21;;;;;;;1.40;1.30;;;;;;;4.45;71.20;97818.23;1765035;81;21609;-42
2021/04/07 03:09:49;;;;;;;1.50;1.40;;;;;;;4.47;71.25;97825.90;1764941;79;21096;-42
2021/04/07 03:12:17;;;;;;;2.08;1.60;;;;;;;4.45;70.99;97828.18;1765037;80;21569;-42
2021/04/07 03:14:45;;;;;;;1.80;1.70;;;;;;;4.38;70.85;97828.81;1765096;81;21108;-42
2021/04/07 03:17:14;;;;;;;1.67;1.57;;;;;;;4.31;70.89;97839.40;1765053;81;22261;-42
2021/04/07 03:19:42;;;;;;;1.52;1.42;;;;;;;4.22;71.08;97841.53;1765000;81;21155;-42
2021/04/07 03:22:10;;;;;;;1.70;1.60;;;;;;;4.16;71.16;97834.92;1765051;81;21146;-42
2021/04/07 03:24:38;;;;;;;2.30;2.10;;;;;;;4.19;71.20;97842.25;1764951;80;21621;-41
2021/04/07 03:27:07;;;;;;;2.58;2.37;;;;;;;4.22;71.38;97836.16;1765226;80;21126;-42
2021/04/07 03:29:35;;;;;;;6.85;2.98;;;;;;;4.23;71.22;97835.04;1765017;81;21306;-42
2021/04/07 03:32:05;;;;;;;3.90;3.47;;;;;;;4.20;71.15;97842.46;1764878;81;21577;-42
2021/04/07 03:34:33;;;;;;;3.87;3.00;;;;;;;4.20;71.23;97842.46;1765136;80;20992;-42
2021/04/07 03:37:01;;;;;;;4.45;3.70;;;;;;;4.22;71.27;97840.19;1764767;80;21189;-42
2021/04/07 03:39:29;;;;;;;4.00;3.60;;;;;;;4.16;70.80;97833.58;1765089;80;21134;-42
2021/04/07 03:41:58;;;;;;;3.98;3.58;;;;;;;4.19;70.86;97850.30;1765041;81;21385;-43
2021/04/07 03:44:25;;;;;;;4.53;4.12;;;;;;;4.20;70.83;97857.22;1764742;81;21162;-42
2021/04/07 03:46:54;;;;;;;5.00;4.37;;;;;;;4.14;70.51;97854.59;1764995;81;21680;-42
2021/04/07 03:49:22;;;;;;;3.85;3.52;;;;;;;4.07;70.64;97852.55;1765028;81;21992;-42
2021/04/07 03:51:50;;;;;;;4.30;3.90;;;;;;;4.04;70.74;97846.55;1764947;81;21194;-42
2021/04/07 03:54:18;;;;;;;4.20;3.85;;;;;;;4.05;70.85;97850.02;1764895;81;21313;-42
2021/04/07 03:56:46;;;;;;;4.50;4.10;;;;;;;4.05;70.87;97850.02;1764907;80;21155;-42
2021/04/07 03:59:14;;;;;;;4.17;3.77;;;;;;;4.02;70.89;97844.03;1769590;80;21123;-41
2021/04/07 04:01:43;;;;;;;4.30;3.90;;;;;;;4.03;70.89;97847.67;1776299;80;21134;-42
2021/04/07 04:04:11;;;;;;;4.58;4.17;;;;;;;4.02;70.76;97845.38;1776198;80;21106;-42
2021/04/07 04:06:44;;;;;;;3.65;3.35;;;;;;;4.04;70.94;97853.82;1776043;80;21368;-42
2021/04/07 04:09:09;;;;;;;3.58;3.27;;;;;;;4.08;70.80;97850.08;1776097;79;21406;-42
2021/04/07 04:11:38;;;;;;;3.95;3.50;;;;;;;4.14;70.68;97857.28;1776087;80;21020;-42
2021/04/07 04:14:07;;;;;;;4.15;3.37;;;;;;;4.19;70.68;97863.70;1776430;80;21166;-42
2021/04/07 04:16:35;;;;;;;3.98;3.37;;;;;;;4.24;70.47;97866.88;1776114;80;21106;-42
2021/04/07 04:19:03;;;;;;;3.80;3.40;;;;;;;4.26;70.14;97858.49;1771392;80;21276;-41
2021/04/07 04:21:31;;;;;;;3.42;3.12;;;;;;;4.27;70.14;97851.97;1776025;80;21190;-42
2021/04/07 04:23:59;;;;;;;3.50;3.20;;;;;;;4.29;70.15;97853.75;1776086;80;21132;-42
2021/04/07 04:26:27;;;;;;;4.58;3.40;;;;;;;4.30;70.28;97855.31;1776080;80;21098;-42
2021/04/07 04:28:55;;;;;;;4.53;3.35;;;;;;;4.33;70.17;97852.69;1776162;80;21110;-42
2021/04/07 04:31:23;;;;;;;3.70;3.30;;;;;;;4.33;69.95;97856.70;1776081;80;21361;-42
2021/04/07 04:33:51;;;;;;;3.80;3.42;;;;;;;4.30;70.08;97857.43;1776061;80;21185;-42
2021/04/07 04:36:20;;;;;;;3.42;3.08;;;;;;;4.27;69.97;97864.82;1776363;80;21562;-42
2021/04/07 04:38:48;;;;;;;3.35;3.05;;;;;;;4.30;70.19;97872.19;1775983;80;21150;-42
2021/04/07 04:41:16;;;;;;;3.45;3.15;;;;;;;4.35;70.23;97873.80;1776113;80;21155;-42
2021/04/07 04:43:44;;;;;;;3.58;3.27;;;;;;;4.35;69.83;97874.58;1776154;80;21193;-42
2021/04/07 04:46:11;;;;;;;5.22;3.58;;;;;;;4.30;70.12;97870.06;1776125;80;21385;-42
2021/04/07 04:48:40;;;;;;;3.47;3.17;;;;;;;4.30;70.36;97879.45;1776014;80;21610;-42
2021/04/07 04:51:09;;;;;;;3.65;3.33;;;;;;;4.28;70.25;97884.38;1776698;79;21546;-42
2021/04/07 04:53:37;;;;;;;3.55;3.25;;;;;;;4.25;70.22;97882.42;1776126;80;21225;-42
2021/04/07 04:56:06;;;;;;;3.33;3.02;;;;;;;4.22;70.29;97883.10;1776045;80;21233;-42
2021/04/07 04:58:33;;;;;;;3.25;2.95;;;;;;;4.16;70.33;97888.56;1775918;80;21146;-42
2021/04/07 05:01:02;;;;;;;2.90;2.60;;;;;;;4.13;70.57;97901.31;1771225;80;21142;-42
2021/04/07 05:03:30;;;;;;;3.52;3.10;;;;;;;4.09;70.29;97901.25;1771136;80;21653;-42
2021/04/07 05:05:58;;;;;;;3.35;3.05;;;;;;;4.05;70.36;97902.30;1771254;80;21115;-42
2021/04/07 05:08:26;;;;;;;3.33;2.65;;;;;;;4.04;70.98;97899.41;1776213;79;21355;-42
2021/04/07 05:10:55;;;;;;;2.40;2.20;;;;;;;4.09;71.11;97905.27;1802973;79;20941;-42
2021/04/07 05:13:26;;;;;;;3.08;2.77;;;;;;;4.20;70.83;97910.86;1802828;79;21151;-42
2021/04/07 05:15:55;;;;;;;3.00;2.67;;;;;;;4.21;70.92;97920.47;1802965;79;21119;-42
2021/04/07 05:18:25;;;;;;;3.02;2.72;;;;;;;4.20;70.43;97925.05;1802990;79;21170;-42
2021/04/07 05:20:53;;;;;;;2.25;1.95;;;;;;;4.10;69.90;97918.13;1803175;79;21577;-42
2021/04/07 05:23:21;;;;;;;1.90;1.80;;;;;;;4.00;70.17;97915.98;1802893;79;21186;-42
2021/04/07 05:25:49;;;;;;;1.75;1.60;;;;;;;3.98;70.47;97918.23;1802988;79;20985;-42
2021/04/07 05:28:17;;;;;;;2.50;2.30;;;;;;;4.00;70.68;97915.42;1803070;79;21152;-42
2021/04/07 05:31:03;;;;;;;2.00;1.80;;;;;;;4.00;70.85;97918.67;1803060;79;21672;-42
2021/04/07 05:33:34;;;;;;;2.80;2.02;;;;;;;4.01;70.83;97921.01;1803036;79;21455;-42
2021/04/07 05:36:07;;;;;;;1.82;1.70;;;;;;;3.94;70.61;97915.48;1803014;79;21167;-42
2021/04/07 05:38:35;;;;;;;1.72;1.57;;;;;;;3.94;70.91;97932.34;1802877;79;21091;-42
2021/04/07 05:41:05;;;;;;;2.10;1.50;;;;;;;4.01;70.77;97925.59;1803066;79;21154;-42
2021/04/07 05:43:37;;;;;;;1.95;1.77;;;;;;;4.07;70.92;97926.84;1803007;79;21143;-42
2021/04/07 05:46:06;;;;;;;2.05;1.77;;;;;;;4.07;71.12;97920.92;1803179;79;21355;-42
2021/04/07 05:48:33;;;;;;;2.05;1.70;;;;;;;4.08;70.96;97928.41;1802781;79;21546;-42
2021/04/07 05:51:03;;;;;;;2.25;2.05;;;;;;;4.06;70.86;97921.30;1771487;81;21142;-42
2021/04/07 05:53:31;;;;;;;2.05;1.55;;;;;;;4.08;70.75;97919.80;1743476;81;21174;-42
2021/04/07 05:56:00;;;;;;;1.98;1.65;;;;;;;4.15;70.79;97917.84;1770664;81;21150;-42
2021/04/07 05:58:29;;;;;;;1.85;1.75;;;;;;;4.21;70.78;97915.10;1771234;81;21298;-42
2021/04/07 06:00:57;;;;;;;2.10;1.77;;;;;;;4.21;70.83;97916.44;1771755;79;21134;-42
2021/04/07 06:03:27;;;;;;;1.77;1.65;;;;;;;4.20;70.90;97921.59;1771251;81;21131;-42
2021/04/07 06:05:55;;;;;;;1.87;1.50;;;;;;;4.19;70.92;97912.77;1771354;80;21123;-42
2021/04/07 06:08:23;;;;;;;1.82;1.55;;;;;;;4.23;71.01;97908.24;1775520;79;21186;-42
2021/04/07 06:10:51;;;;;;;2.15;1.80;;;;;;;4.35;70.83;97914.05;1802989;79;21267;-42
2021/04/07 06:13:20;;;;;;;2.27;1.70;;;;;;;4.46;70.74;97916.35;1802800;79;21846;-42
2021/04/07 06:15:50;;;;;;;1.80;1.60;;;;;;;4.55;70.54;97919.59;1798700;79;21016;-42
2021/04/07 06:18:20;;;;;;;2.33;1.90;;;;;;;4.62;69.91;97920.30;1803050;79;21150;-42
2021/04/07 06:20:52;;;;;;;1.82;1.72;;;;;;;4.63;69.86;97918.62;1803043;79;21059;-42
2021/04/07 06:23:20;;;;;;;1.60;1.50;;;;;;;4.63;69.50;97929.35;1802889;79;21402;-42
2021/04/07 06:25:48;;;;;;;1.50;1.40;;;;;;;4.60;69.46;97929.30;1802996;79;21166;-43
2021/04/07 06:28:17;;;;;;;1.60;1.50;;;;;;;4.65;69.34;97935.69;1802959;79;21125;-42
2021/04/07 06:30:45;;;;;;;1.98;1.77;;;;;;;4.62;68.61;97935.84;1803089;79;21593;-42
2021/04/07 06:33:25;;;;;;;2.13;1.90;;;;;;;4.50;69.18;97930.64;1803269;79;21130;-42
2021/04/07 06:35:59;;;;;;;1.47;1.37;;;;;;;4.46;69.73;97931.11;1803177;79;21297;-42
2021/04/07 06:38:34;;;;;;;1.87;1.77;;;;;;;4.43;69.61;97930.48;1803179;79;21605;-42
2021/04/07 06:41:02;;;;;;;1.57;1.47;;;;;;;4.43;69.71;97933.73;1803306;79;21624;-42
2021/04/07 06:43:34;;;;;;;2.00;1.80;;;;;;;4.45;69.69;97934.95;1802959;79;21107;-42
2021/04/07 06:46:03;;;;;;;1.60;1.50;;;;;;;4.53;69.19;97937.97;1802930;79;21123;-42
2021/04/07 06:48:31;;;;;;;1.75;1.65;;;;;;;4.57;69.53;97938.81;1803286;79;21185;-42
2021/04/07 06:50:59;;;;;;;1.80;1.70;;;;;;;4.59;69.26;97939.25;1802864;79;21570;-42
2021/04/07 06:53:28;;;;;;;1.90;1.80;;;;;;;4.55;69.09;97954.48;1802958;79;21091;-43
2021/04/07 06:55:56;;;;;;;2.10;1.90;;;;;;;4.51;68.62;97938.88;1802819;79;21139;-43
2021/04/07 06:58:25;;;;;;;2.15;1.95;;;;;;;4.49;68.99;97943.84;1802905;79;21154;-43
2021/04/07 07:00:53;;;;;;;1.60;1.50;;;;;;;4.54;69.12;97944.90;1798408;78;21186;-43
2021/04/07 07:03:22;;;;;;;2.20;2.00;;;;;;;4.68;69.18;97948.42;1796392;79;21684;-42
2021/04/07 07:05:55;;;;;;;2.02;1.92;;;;;;;4.80;68.97;97958.42;1796601;79;21267;-42
2021/04/07 07:08:26;;;;;;;2.10;1.90;;;;;;;4.87;68.89;97961.82;1794025;79;20980;-43
2021/04/07 07:11:10;;;;;;;2.20;2.00;;;;;;;4.92;68.94;97970.16;1796415;79;20993;-43
2021/04/07 07:13:41;;;;;;;1.95;1.80;;;;;;;4.99;68.51;97962.21;1796462;79;21000;-43
2021/04/07 07:16:11;;;;;;;;;;;;;;;5.03;68.30;97975.94;1777039;79;21400;-43
2021/04/07 07:18:44;;;;;;;3.22;2.02;;;;;;;5.06;68.25;97969.06;1787035;79;20187;-43
2021/04/07 07:21:16;;;;;;;3.00;1.80;;;;;;;5.05;67.28;97967.51;1765000;80;21115;-43
2021/04/07 07:23:48;;;;;;;2.60;1.90;;;;;;;5.02;66.66;97960.95;1765027;81;21167;-43
2021/04/07 07:26:18;;;;;;;2.42;2.10;;;;;;;4.98;67.22;97966.05;1764981;80;21368;-42
2021/04/07 07:28:51;;;;;;;2.92;2.12;;;;;;;4.97;67.16;97974.67;1744497;81;21130;-43
2021/04/07 07:31:30;;;;;;;2.52;2.22;;;;;;;4.95;67.14;97970.20;1765059;81;21131;-43
2021/04/07 07:34:02;;;;;;;3.17;2.87;;;;;;;4.90;67.06;97973.19;1765005;80;20993;-42
2021/04/07 07:36:34;;;;;;;2.55;2.35;;;;;;;4.87;67.07;97968.53;1765131;81;21634;-43
2021/04/07 07:41:45;;;;;;;2.60;2.30;;;;;;;5.01;67.25;97957.27;1809114;78;22435;-42
2021/04/07 07:44:15;;;;;;;3.25;2.55;;;;;;;5.08;66.77;97952.04;1729295;80;21043;-42
2021/04/07 07:46:45;;;;;;;2.40;2.20;;;;;;;5.14;66.42;97956.73;1787355;80;21392;-42
2021/04/07 07:49:15;;;;;;;2.60;2.40;;;;;;;5.19;66.47;97967.76;1787317;80;21072;-42
2021/04/07 07:51:45;;;;;;;2.55;2.30;;;;;;;5.25;66.28;97959.05;1787575;80;21522;-42
2021/04/07 07:54:16;;;;;;;2.37;2.17;;;;;;;5.24;65.66;97964.77;1787534;80;20992;-42
2021/04/07 07:56:44;;;;;;;2.50;2.20;;;;;;;5.18;65.31;97978.31;1787346;80;21039;-42
2021/04/07 07:59:12;;;;;;;2.67;2.42;;;;;;;5.12;65.19;97976.48;1787407;80;22428;-42
2021/04/07 08:01:45;;;;;;;2.67;2.15;;;;;;;5.13;65.63;97968.61;1787313;80;21612;-41
2021/04/07 08:04:14;;;;;;;2.95;2.50;;;;;;;5.20;65.07;97966.63;1787351;80;21024;-42
2021/04/07 08:06:43;;;;;;;2.92;2.30;;;;;;;5.18;65.48;97965.63;1753251;80;21554;-42
2021/04/07 08:09:13;;;;;;;2.47;2.27;;;;;;;5.19;65.46;97958.35;1801269;79;21151;-41
2021/04/07 08:11:45;;;;;;;3.20;2.70;;;;;;;5.19;65.42;97955.67;1816497;79;21234;-42
2021/04/07 08:14:17;;;;;;;2.55;2.35;;;;;;;5.21;65.42;97960.13;1816149;78;21067;-42
2021/04/07 08:16:47;;;;;;;2.98;2.62;;;;;;;5.21;66.00;97966.84;1816136;79;21014;-42
2021/04/07 08:19:17;;;;;;;2.10;1.90;;;;;;;5.27;66.04;97964.08;1816118;79;21125;-42
2021/04/07 08:21:46;;;;;;;2.50;2.30;;;;;;;5.36;65.03;97964.61;1816228;79;21157;-42
2021/04/07 08:24:14;;;;;;;3.33;2.98;;;;;;;5.38;64.92;97960.98;1816176;79;21430;-42
2021/04/07 08:26:42;;;;;;;3.40;2.87;;;;;;;5.40;65.47;97965.45;1782494;79;21012;-42
2021/04/07 08:29:12;;;;;;;3.72;2.83;;;;;;;5.44;65.86;97963.59;1758563;79;25260;-42
2021/04/07 08:31:40;;;;;;;3.50;3.02;;;;;;;5.51;65.41;97963.72;1816111;79;21166;-42
2021/04/07 08:34:11;;;;;;;3.60;2.83;;;;;;;5.57;66.27;97963.60;1757575;79;21186;-41
2021/04/07 08:36:42;;;;;;;4.03;3.10;;;;;;;5.65;66.23;97972.57;1816043;79;21366;-42
2021/04/07 08:39:17;;;;;;;3.75;2.92;;;;;;;5.75;66.06;97971.96;1816107;79;21047;-41
2021/04/07 08:41:47;;;;;;;3.50;3.20;;;;;;;5.79;66.12;97967.98;1799727;79;21183;-42
2021/04/07 08:44:17;;;;;;;3.67;3.37;;;;;;;5.77;65.58;97960.83;1797730;79;21354;-42
2021/04/07 08:46:54;;;;;;;4.42;3.70;;;;;;;5.70;65.79;97957.48;1797664;79;21147;-42
2021/04/07 08:49:41;;;;;;;4.50;3.67;;;;;;;5.65;66.58;97963.94;1797664;79;21244;-42
2021/04/07 08:52:23;;;;;;;4.28;2.92;;;;;;;5.67;67.27;97965.68;1797312;79;21107;-42
2021/04/07 08:54:56;;;;;;;3.85;3.35;;;;;;;5.74;66.67;97962.34;1797179;79;21150;-42
2021/04/07 08:57:35;;;;;;;5.08;3.00;;;;;;;5.86;66.91;97962.69;1796989;79;21127;-42
2021/04/07 09:00:15;;;;;;;4.00;3.55;;;;;;;5.90;66.65;97953.59;1797390;79;20973;-42
2021/04/07 09:02:53;;;;;;;3.80;3.40;;;;;;;5.97;66.85;97952.90;1797305;79;21738;-42
2021/04/07 09:05:31;;;;;;;3.50;3.20;;;;;;;6.01;65.82;97945.65;1797156;79;21617;-42
2021/04/07 09:08:00;;;;;;;4.22;3.55;;;;;;;6.01;66.04;97951.03;1797099;79;21143;-42
2021/04/07 09:10:44;;;;;;;4.87;3.33;;;;;;;5.93;65.30;97956.11;1765437;81;21186;-42
2021/04/07 09:15:26;;;;;;;4.62;3.05;;;;;;;5.83;66.10;97959.39;1809527;78;22639;-42
2021/04/07 09:17:57;;;;;;;4.55;3.40;;;;;;;5.74;66.57;97962.34;1787401;80;21618;-42
2021/04/07 09:20:44;;;;;;;5.10;3.90;;;;;;;5.73;66.17;97973.45;1787530;80;22305;-42
2021/04/07 09:23:30;;;;;;;3.87;3.47;;;;;;;5.72;65.98;97970.55;1787242;80;21047;-42
2021/04/07 09:26:19;;;;;;;3.87;3.22;;;;;;;5.71;66.19;97974.39;1787292;80;21035;-42
2021/04/07 09:28:50;;;;;;;4.37;3.22;;;;;;;5.66;66.03;97974.88;1787400;80;20945;-42
2021/04/07 09:31:35;;;;;;;3.83;2.98;;;;;;;5.64;66.62;97972.36;1787299;80;20999;-42
2021/04/07 09:34:05;;;;;;;3.25;2.83;;;;;;;5.72;65.82;97974.02;1786475;80;20976;-41
2021/04/07 09:36:37;;;;;;;3.58;3.10;;;;;;;5.78;65.88;97974.48;1787453;80;21027;-42
2021/04/07 09:39:09;;;;;;;3.55;3.25;;;;;;;5.74;65.83;97982.50;1787367;80;21039;-42
2021/04/07 09:41:40;;;;;;;4.00;3.60;;;;;;;5.65;66.17;97983.33;1787212;80;21142;-42
2021/04/07 09:44:09;;;;;;;4.30;3.40;;;;;;;5.59;66.25;97984.19;1787377;80;21151;-42
2021/04/07 09:46:36;;;;;;;4.72;3.80;;;;;;;5.55;66.72;97990.08;1787264;80;21613;-42
2021/04/07 09:49:12;;;;;;;5.25;3.92;;;;;;;5.53;66.77;97990.22;1787284;80;21166;-42
2021/04/07 09:51:50;;;;;;;4.28;3.72;;;;;;;5.50;67.05;97989.60;1787446;80;21027;-42
2021/04/07 09:54:34;;;;;;;4.45;3.40;;;;;;;5.55;67.59;97987.39;1787318;80;21158;-42
2021/04/07 09:57:12;;;;;;;5.10;3.50;;;;;;;5.68;67.73;97987.97;1787276;80;21165;-41
2021/04/07 09:59:51;;;;;;;4.62;3.45;;;;;;;5.77;67.58;98002.51;1787395;80;21210;-42
2021/04/07 10:02:25;;;;;;;5.20;3.60;;;;;;;5.79;66.79;98001.59;1787373;80;21133;-42
2021/04/07 10:04:54;;;;;;;3.42;3.12;;;;;;;5.68;67.00;98002.76;1787358;80;21118;-42
2021/04/07 10:07:25;;;;;;;3.92;3.52;;;;;;;5.60;67.25;98005.91;1787283;80;21174;-42
2021/04/07 10:09:59;;;;;;;4.33;3.00;;;;;;;5.60;67.32;98001.88;1810171;79;21124;-42
2021/04/07 10:12:36;;;;;;;3.87;3.08;;;;;;;5.63;67.93;98005.19;1816137;79;21307;-42
2021/04/07 10:15:03;;;;;;;4.25;3.15;;;;;;;5.65;67.40;98004.83;1806670;79;21174;-42
2021/04/07 10:17:35;;;;;;;4.45;3.40;;;;;;;5.64;68.03;98000.59;1805131;79;21186;-42
2021/04/07 10:20:14;;;;;;;4.22;3.52;;;;;;;5.67;68.28;98000.64;1805156;79;21189;-42
2021/04/07 10:22:43;;;;;;;4.85;3.42;;;;;;;5.68;67.80;98007.57;1805031;79;21127;-42
2021/04/07 10:25:14;;;;;;;4.03;3.30;;;;;;;5.62;68.02;98009.00;1804974;79;21359;-42
2021/04/07 10:27:44;;;;;;;2.90;2.60;;;;;;;5.62;67.67;98017.06;1804388;79;21064;-42
2021/04/07 10:30:16;;;;;;;3.50;3.20;;;;;;;5.63;67.40;98014.59;1804495;79;21155;-42
2021/04/07 10:32:46;;;;;;;4.28;3.00;;;;;;;5.63;67.59;98009.22;1804387;79;21610;-42
2021/04/07 10:35:22;;;;;;;3.60;3.17;;;;;;;5.58;67.01;98010.08;1804547;79;21171;-42
2021/04/07 10:38:08;;;;;;;3.90;3.35;;;;;;;5.55;67.70;98007.55;1804277;79;21397;-42
2021/04/07 10:40:40;;;;;;;3.80;3.33;;;;;;;5.58;67.30;98008.17;1804264;79;21593;-42
2021/04/07 10:43:16;;;;;;;3.58;3.27;;;;;;;5.55;67.61;98014.27;1804364;79;21024;-42
2021/04/07 10:45:47;;;;;;;3.50;3.20;;;;;;;5.58;68.18;98015.45;1804391;79;21166;-42
2021/04/07 10:48:20;;;;;;;5.30;3.00;;;;;;;5.64;67.39;98010.77;1803721;79;21526;-42
2021/04/07 10:50:48;;;;;;;3.95;3.50;;;;;;;5.62;67.25;98004.97;1804578;79;22265;-42
2021/04/07 10:53:29;;;;;;;3.75;3.42;;;;;;;5.61;68.11;98006.13;1804264;79;21161;-42
2021/04/07 10:55:59;;;;;;;3.90;3.42;;;;;;;5.61;67.92;98010.16;1779652;79;21567;-42
2021/04/07 10:58:29;;;;;;;4.17;3.33;;;;;;;5.57;66.89;97999.11;1804376;79;21178;-42
2021/04/07 11:00:57;;;;;;;3.42;3.10;;;;;;;5.51;66.72;98005.38;1804480;79;21126;-42
2021/04/07 11:03:32;;;;;;;3.72;3.08;;;;;;;5.41;66.09;98007.31;1803745;79;21197;-41
2021/04/07 11:06:01;;;;;;;3.87;2.87;;;;;;;5.35;67.36;98010.08;1768540;80;21040;-42
2021/04/07 11:08:39;;;;;;;3.12;2.87;;;;;;;5.38;67.51;98004.55;1757307;81;21204;-42
2021/04/07 11:11:08;;;;;;;3.25;2.92;;;;;;;5.37;67.75;98001.67;1768749;81;21637;-41
2021/04/07 11:13:38;;;;;;;3.75;3.45;;;;;;;5.35;67.75;98003.93;1691139;82;21259;-42
2021/04/07 11:16:10;;;;;;;3.55;3.20;;;;;;;5.31;67.17;98006.56;1768594;81;21291;-42
2021/04/07 11:18:40;;;;;;;3.98;3.15;;;;;;;5.21;67.20;98005.23;1737948;82;21199;-42
2021/04/07 11:21:09;;;;;;;3.52;3.10;;;;;;;5.10;67.16;98007.51;1768517;80;21605;-41
2021/04/07 11:23:37;;;;;;;3.50;3.10;;;;;;;5.00;67.93;98017.48;1737953;82;21196;-42
2021/04/07 11:26:09;;;;;;;3.33;3.02;;;;;;;4.94;68.76;98017.58;1768476;80;21199;-42
2021/04/07 11:28:40;;;;;;;4.33;3.20;;;;;;;4.92;69.21;98020.61;1738044;82;21280;-42
2021/04/07 11:31:12;;;;;;;;;;;;;;;4.99;69.37;98010.55;1771125;81;21151;-42
2021/04/07 11:33:45;;;;;;;4.08;3.20;;;;;;;5.00;69.19;98006.73;1734205;82;20292;-42
2021/04/07 11:38:48;;;;;;;3.50;3.15;;;;;;;4.93;69.87;98011.99;1738027;82;21131;-42
2021/04/07 11:46:28;;;;;;;3.37;3.00;;;;;;;5.08;69.01;98015.91;1768505;81;21172;-42
2021/04/07 11:48:57;;;;;;;3.90;3.00;;;;;;;4.97;68.57;98022.23;1737952;82;21148;-42
2021/04/07 11:51:25;;;;;;;3.47;3.17;;;;;;;4.85;67.81;98019.12;1768454;81;21115;-42
2021/04/07 11:53:53;;;;;;;3.70;3.30;;;;;;;4.75;68.74;98016.43;1737980;82;21210;-41
2021/04/07 11:56:22;;;;;;;3.20;2.90;;;;;;;4.73;68.94;98013.34;1768355;81;21166;-42
2021/04/07 11:58:50;;;;;;;4.00;3.22;;;;;;;4.72;68.85;98022.52;1737955;82;21200;-41
2021/04/07 12:01:18;;;;;;;4.78;3.85;;;;;;;4.73;69.43;98038.84;1768031;81;21175;-41
2021/04/07 12:03:48;;;;;;;4.78;3.77;;;;;;;4.77;69.95;98039.69;1734413;82;21147;-42
2021/04/07 12:06:19;;;;;;;3.95;3.30;;;;;;;4.78;69.88;98038.56;1768533;81;21207;-42
2021/04/07 12:08:47;;;;;;;4.22;3.58;;;;;;;4.76;70.05;98044.84;1768402;81;21075;-42